Time;durP1;ratioP1;P1;durP2;ratioP2;P2;SDS_P1;SDS_P2;PMS_P1;PMS_P2;Temp;Humidity;BMP_temperature;BMP_pressure;BME280_temperature;BME280_humidity;BME280_pressure;Samples;Min_cycle;Max_cycle;Signal;HPM_P1;HPM_P2
2022/12/04 00:01:36;;;;;;;76.90;38.45;;;;;;;;;;5096556;28;20192;-58
2022/12/04 00:04:03;;;;;;;80.55;39.28;;;;;;;;;;5096786;28;20189;-59
2022/12/04 00:06:30;;;;;;;74.72;38.90;;;;;;;;;;5096552;28;20243;-59
2022/12/04 00:08:58;;;;;;;77.38;37.63;;;;;;;;;;5096458;28;20218;-59
2022/12/04 00:11:26;;;;;;;74.28;38.75;;;;;;;;;;5096313;28;20193;-60
2022/12/04 00:13:53;;;;;;;83.00;38.22;;;;;;;;;;5095976;28;20300;-59
2022/12/04 00:16:21;;;;;;;81.47;39.67;;;;;;;;;;5096132;28;20190;-58
2022/12/04 00:18:51;;;;;;;83.47;39.90;;;;;;;;;;5096172;28;20205;-59
2022/12/04 00:21:19;;;;;;;87.20;39.15;;;;;;;;;;5096465;28;20208;-59
2022/12/04 00:23:47;;;;;;;84.47;40.70;;;;;;;;;;5096114;28;20200;-59
2022/12/04 00:26:15;;;;;;;84.78;39.90;;;;;;;;;;5095969;28;20251;-59
2022/12/04 00:28:43;;;;;;;78.88;39.90;;;;;;;;;;5095865;28;20214;-58
2022/12/04 00:31:12;;;;;;;80.97;39.03;;;;;;;;;;5096220;28;20291;-59
2022/12/04 00:33:40;;;;;;;87.22;43.15;;;;;;;;;;5096126;28;20197;-58
2022/12/04 00:36:10;;;;;;;88.43;41.33;;;;;;;;;;5096157;28;20201;-58
2022/12/04 00:38:37;;;;;;;89.88;41.33;;;;;;;;;;5095981;28;20189;-57
2022/12/04 00:41:05;;;;;;;85.07;40.45;;;;;;;;;;5096006;28;20556;-59
2022/12/04 00:43:32;;;;;;;85.80;41.55;;;;;;;;;;5096035;28;20193;-57
2022/12/04 00:45:59;;;;;;;85.85;39.05;;;;;;;;;;5096008;28;20561;-59
2022/12/04 00:48:27;;;;;;;81.03;41.10;;;;;;;;;;5095606;28;20297;-60
2022/12/04 00:50:54;;;;;;;89.70;42.40;;;;;;;;;;5095975;28;20198;-58
2022/12/04 00:53:23;;;;;;;89.00;42.83;;;;;;;;;;5095697;28;20189;-59
2022/12/04 00:55:50;;;;;;;103.07;44.55;;;;;;;;;;5095716;28;20579;-59
2022/12/04 00:58:17;;;;;;;89.82;41.80;;;;;;;;;;5095788;28;20201;-58
2022/12/04 01:00:44;;;;;;;89.45;41.45;;;;;;;;;;5095891;28;20645;-59
2022/12/04 01:03:12;;;;;;;91.15;42.45;;;;;;;;;;5095730;28;20698;-59
2022/12/04 01:05:40;;;;;;;85.20;42.97;;;;;;;;;;5095711;28;20188;-59
2022/12/04 01:08:08;;;;;;;90.03;43.75;;;;;;;;;;5095495;28;20213;-58
2022/12/04 01:10:38;;;;;;;90.43;43.53;;;;;;;;;;5095457;28;20197;-60
2022/12/04 01:13:05;;;;;;;84.15;41.67;;;;;;;;;;5095744;28;20285;-58
2022/12/04 01:15:33;;;;;;;98.72;44.03;;;;;;;;;;5095472;28;20185;-58
2022/12/04 01:18:00;;;;;;;92.28;42.90;;;;;;;;;;5095192;28;20208;-58
2022/12/04 01:20:27;;;;;;;75.07;39.28;;;;;;;;;;5095229;28;20198;-58
2022/12/04 01:22:55;;;;;;;97.30;45.70;;;;;;;;;;5095129;28;20240;-58
2022/12/04 01:25:22;;;;;;;90.63;43.38;;;;;;;;;;5095066;28;20597;-58
2022/12/04 01:27:51;;;;;;;94.45;43.70;;;;;;;;;;5094309;28;20231;-58
2022/12/04 01:30:18;;;;;;;98.05;46.22;;;;;;;;;;5095108;28;20195;-59
2022/12/04 01:32:45;;;;;;;102.97;43.47;;;;;;;;;;5095243;28;20684;-58
2022/12/04 01:35:12;;;;;;;89.57;43.03;;;;;;;;;;5094952;28;20189;-60
2022/12/04 01:37:39;;;;;;;96.75;44.08;;;;;;;;;;5094734;28;20188;-58
2022/12/04 01:40:07;;;;;;;105.00;45.97;;;;;;;;;;5094810;28;20238;-59
2022/12/04 01:42:34;;;;;;;99.65;44.60;;;;;;;;;;5094955;28;20196;-58
2022/12/04 01:45:20;;;;;;;98.03;43.72;;;;;;;;;;5094980;28;20196;-58
2022/12/04 01:48:05;;;;;;;112.10;44.63;;;;;;;;;;5151931;27;20859;-56
2022/12/04 01:50:32;;;;;;;101.90;46.05;;;;;;;;;;5131415;28;20452;-57
2022/12/04 01:52:59;;;;;;;95.22;43.33;;;;;;;;;;5131387;28;20188;-56
2022/12/04 01:55:26;;;;;;;94.10;43.95;;;;;;;;;;5131313;28;20190;-55
2022/12/04 01:57:53;;;;;;;114.40;47.10;;;;;;;;;;5131092;28;20194;-57
2022/12/04 02:00:20;;;;;;;102.13;46.15;;;;;;;;;;5130996;28;20184;-57
2022/12/04 02:02:48;;;;;;;91.00;42.00;;;;;;;;;;5131303;28;20473;-59
2022/12/04 02:05:18;;;;;;;101.25;43.85;;;;;;;;;;5131400;28;20272;-59
2022/12/04 02:07:46;;;;;;;100.32;43.88;;;;;;;;;;5130978;28;20586;-58
2022/12/04 02:10:15;;;;;;;101.10;46.45;;;;;;;;;;5130968;28;20608;-57
2022/12/04 02:12:46;;;;;;;96.82;46.08;;;;;;;;;;5130874;28;20191;-60
2022/12/04 02:15:17;;;;;;;99.30;45.55;;;;;;;;;;5131306;28;20188;-59
2022/12/04 02:17:49;;;;;;;99.55;45.28;;;;;;;;;;5130692;28;20655;-58
2022/12/04 02:20:30;;;;;;;101.40;43.50;;;;;;;;;;5130945;28;20188;-59
2022/12/04 02:23:08;;;;;;;101.55;45.70;;;;;;;;;;5130756;28;20191;-59
2022/12/04 02:25:38;;;;;;;112.65;46.03;;;;;;;;;;5130652;28;20271;-58
2022/12/04 02:28:08;;;;;;;98.40;44.03;;;;;;;;;;5130835;28;20196;-58
2022/12/04 02:30:37;;;;;;;101.93;46.53;;;;;;;;;;5130606;28;20194;-57
2022/12/04 02:33:09;;;;;;;116.57;46.03;;;;;;;;;;5130599;28;20270;-58
2022/12/04 02:35:38;;;;;;;96.60;42.60;;;;;;;;;;5130458;28;20521;-58
2022/12/04 02:38:11;;;;;;;93.50;42.97;;;;;;;;;;5130596;28;20706;-58
2022/12/04 02:40:42;;;;;;;88.90;42.30;;;;;;;;;;5130506;28;20194;-58
2022/12/04 02:43:13;;;;;;;92.50;43.42;;;;;;;;;;5130498;28;20365;-58
2022/12/04 02:45:42;;;;;;;100.57;44.33;;;;;;;;;;5130128;28;20207;-58
2022/12/04 02:48:09;;;;;;;114.00;45.50;;;;;;;;;;5130117;28;20306;-59
2022/12/04 02:50:39;;;;;;;96.53;43.33;;;;;;;;;;5130097;28;20188;-58
2022/12/04 02:53:07;;;;;;;103.35;45.08;;;;;;;;;;5130312;28;20191;-59
2022/12/04 02:55:37;;;;;;;97.07;45.00;;;;;;;;;;5130161;28;20711;-58
2022/12/04 02:58:06;;;;;;;92.38;43.45;;;;;;;;;;5123055;28;20184;-58
2022/12/04 03:00:36;;;;;;;102.82;45.45;;;;;;;;;;5116355;28;20198;-58
2022/12/04 03:03:07;;;;;;;96.72;44.75;;;;;;;;;;5116180;28;20652;-58
2022/12/04 03:05:35;;;;;;;101.97;43.55;;;;;;;;;;5116380;28;20188;-58
2022/12/04 03:08:04;;;;;;;91.00;43.00;;;;;;;;;;5116139;28;20219;-58
2022/12/04 03:10:33;;;;;;;107.82;45.95;;;;;;;;;;5116157;28;20192;-59
2022/12/04 03:13:03;;;;;;;94.57;42.35;;;;;;;;;;5116061;28;20274;-58
2022/12/04 03:15:31;;;;;;;99.88;45.42;;;;;;;;;;5115973;28;20228;-58
2022/12/04 03:18:02;;;;;;;103.80;45.35;;;;;;;;;;5116119;28;20194;-58
2022/12/04 03:20:30;;;;;;;100.90;43.55;;;;;;;;;;5116119;28;20195;-59
2022/12/04 03:23:00;;;;;;;96.25;44.25;;;;;;;;;;5115932;28;20193;-59
2022/12/04 03:25:32;;;;;;;93.80;40.38;;;;;;;;;;5115845;28;20277;-59
2022/12/04 03:28:01;;;;;;;93.10;44.03;;;;;;;;;;5115635;28;20219;-58
2022/12/04 03:30:30;;;;;;;97.13;42.53;;;;;;;;;;5115914;28;20190;-58
2022/12/04 03:32:59;;;;;;;85.50;42.70;;;;;;;;;;5115877;28;20189;-58
2022/12/04 03:35:29;;;;;;;93.90;41.72;;;;;;;;;;5115854;28;20548;-58
2022/12/04 03:37:58;;;;;;;99.78;44.20;;;;;;;;;;5115663;28;20631;-59
2022/12/04 03:40:28;;;;;;;93.85;44.50;;;;;;;;;;5115438;28;20189;-59
2022/12/04 03:42:58;;;;;;;100.90;43.35;;;;;;;;;;5115716;28;20555;-59
2022/12/04 03:45:26;;;;;;;90.75;43.63;;;;;;;;;;5115567;28;20279;-58
2022/12/04 03:47:55;;;;;;;92.93;42.20;;;;;;;;;;5115198;28;20314;-58
2022/12/04 03:50:26;;;;;;;94.30;41.00;;;;;;;;;;5115578;28;20745;-59
2022/12/04 03:52:59;;;;;;;92.35;42.28;;;;;;;;;;5115409;28;20197;-59
2022/12/04 03:55:27;;;;;;;80.57;40.72;;;;;;;;;;5115735;28;20190;-57
2022/12/04 03:57:57;;;;;;;88.63;41.83;;;;;;;;;;5115153;28;20649;-59
2022/12/04 04:00:24;;;;;;;97.93;43.22;;;;;;;;;;5115276;28;20199;-59
2022/12/04 04:02:53;;;;;;;93.32;44.05;;;;;;;;;;5115198;28;20330;-59
2022/12/04 04:05:21;;;;;;;87.03;40.60;;;;;;;;;;5115048;28;20192;-59
2022/12/04 04:07:50;;;;;;;94.63;40.35;;;;;;;;;;5115120;28;20300;-58
2022/12/04 04:10:20;;;;;;;95.85;40.25;;;;;;;;;;5114129;27;20185;-59
2022/12/04 04:24:13;;;;;;;80.97;39.22;;;;;;;;;;5115027;28;20284;-58
2022/12/04 04:24:16;;;;;;;89.88;42.53;;;;;;;;;;5114743;28;20241;-60
2022/12/04 04:26:46;;;;;;;85.68;40.95;;;;;;;;;;5114993;28;20244;-59
2022/12/04 04:29:13;;;;;;;93.80;42.40;;;;;;;;;;5114694;28;20192;-59
2022/12/04 04:31:43;;;;;;;89.60;40.70;;;;;;;;;;5114663;28;20189;-59
2022/12/04 04:34:14;;;;;;;99.68;42.92;;;;;;;;;;5114656;28;20192;-58
2022/12/04 04:36:46;;;;;;;87.50;39.47;;;;;;;;;;5114296;28;20220;-60
2022/12/04 04:39:16;;;;;;;84.18;39.08;;;;;;;;;;5114628;28;20279;-59
2022/12/04 04:41:47;;;;;;;81.78;38.95;;;;;;;;;;5114624;28;20196;-59
2022/12/04 04:44:17;;;;;;;90.13;41.70;;;;;;;;;;5114379;28;20199;-59
2022/12/04 04:46:47;;;;;;;77.00;39.85;;;;;;;;;;5113956;28;20229;-58
2022/12/04 04:49:15;;;;;;;92.75;43.30;;;;;;;;;;5114149;28;20184;-59
2022/12/04 04:51:42;;;;;;;78.00;39.58;;;;;;;;;;5114117;28;20715;-57
2022/12/04 04:54:11;;;;;;;92.10;41.53;;;;;;;;;;5114256;28;20277;-58
2022/12/04 04:56:40;;;;;;;91.90;41.55;;;;;;;;;;5114150;28;20195;-56
2022/12/04 04:59:09;;;;;;;81.50;40.10;;;;;;;;;;5114088;28;20594;-57
2022/12/04 05:01:36;;;;;;;92.97;41.67;;;;;;;;;;5113914;28;20277;-58
2022/12/04 05:04:03;;;;;;;96.32;43.70;;;;;;;;;;5114111;28;20185;-59
2022/12/04 05:06:30;;;;;;;86.38;40.05;;;;;;;;;;5113994;28;20214;-58
2022/12/04 05:08:57;;;;;;;84.38;41.92;;;;;;;;;;5113919;28;20189;-57
2022/12/04 05:11:23;;;;;;;87.25;43.03;;;;;;;;;;5113761;28;20199;-59
2022/12/04 05:13:50;;;;;;;91.32;40.70;;;;;;;;;;5113803;28;20191;-59
2022/12/04 05:16:19;;;;;;;78.68;37.80;;;;;;;;;;5113738;28;20189;-58
2022/12/04 05:19:52;;;;;;;85.45;38.20;;;;;;;;;;5113877;28;20285;-58
2022/12/04 05:21:32;;;;;;;92.75;41.75;;;;;;;;;;5113275;28;20188;-59
2022/12/04 05:23:59;;;;;;;97.53;43.13;;;;;;;;;;5113730;28;20240;-59
2022/12/04 05:26:27;;;;;;;91.05;40.65;;;;;;;;;;5113582;28;20288;-58
2022/12/04 05:28:53;;;;;;;92.82;41.97;;;;;;;;;;5113401;28;20224;-59
2022/12/04 05:31:22;;;;;;;97.30;41.47;;;;;;;;;;5113815;28;20184;-60
2022/12/04 05:33:48;;;;;;;86.30;39.95;;;;;;;;;;5113692;28;20196;-59
2022/12/04 05:36:15;;;;;;;82.10;41.78;;;;;;;;;;5113621;28;20290;-57
2022/12/04 05:38:42;;;;;;;78.80;38.42;;;;;;;;;;5113475;28;20284;-59
2022/12/04 05:41:09;;;;;;;84.60;40.95;;;;;;;;;;5113419;28;20601;-59
2022/12/04 05:43:36;;;;;;;84.53;39.05;;;;;;;;;;5113608;28;20189;-59
2022/12/04 05:46:04;;;;;;;86.43;41.22;;;;;;;;;;5113498;28;20260;-59
2022/12/04 05:48:33;;;;;;;87.18;39.80;;;;;;;;;;5113377;28;20220;-57
2022/12/04 05:51:00;;;;;;;95.07;44.15;;;;;;;;;;5113454;28;20216;-58
2022/12/04 05:53:27;;;;;;;88.35;39.28;;;;;;;;;;5113402;28;20193;-59
2022/12/04 05:55:54;;;;;;;85.15;40.17;;;;;;;;;;5113227;28;20631;-58
2022/12/04 05:58:21;;;;;;;77.10;39.65;;;;;;;;;;5113461;28;20188;-59
2022/12/04 06:00:48;;;;;;;82.78;40.67;;;;;;;;;;5113420;28;20189;-59
2022/12/04 06:03:15;;;;;;;85.80;39.60;;;;;;;;;;5113355;28;20216;-59
2022/12/04 06:05:43;;;;;;;92.57;38.80;;;;;;;;;;5113339;28;20622;-59
2022/12/04 06:08:10;;;;;;;87.30;42.63;;;;;;;;;;5112953;28;20215;-59
2022/12/04 06:10:37;;;;;;;85.03;39.63;;;;;;;;;;5113377;28;20593;-59
2022/12/04 06:13:07;;;;;;;85.95;42.28;;;;;;;;;;5113306;28;20193;-59
2022/12/04 06:15:37;;;;;;;86.07;39.53;;;;;;;;;;5113254;28;20292;-58
2022/12/04 06:18:04;;;;;;;89.85;39.92;;;;;;;;;;5113122;28;20279;-58
2022/12/04 06:20:30;;;;;;;81.00;40.38;;;;;;;;;;5113111;28;20555;-58
2022/12/04 06:22:59;;;;;;;94.20;42.03;;;;;;;;;;5112995;28;20196;-59
2022/12/04 06:25:27;;;;;;;90.32;40.67;;;;;;;;;;5113269;28;20279;-59
2022/12/04 06:27:54;;;;;;;84.75;38.45;;;;;;;;;;5113018;28;20253;-59
2022/12/04 06:30:21;;;;;;;77.88;37.70;;;;;;;;;;5113092;28;20547;-58
2022/12/04 06:32:48;;;;;;;86.43;40.30;;;;;;;;;;5113756;28;20278;-58
2022/12/04 06:35:14;;;;;;;97.25;41.65;;;;;;;;;;5116828;28;20279;-58
2022/12/04 06:37:42;;;;;;;88.95;39.88;;;;;;;;;;5117311;28;20192;-59
2022/12/04 06:40:10;;;;;;;87.65;41.85;;;;;;;;;;5116948;28;20279;-59
2022/12/04 06:42:37;;;;;;;95.53;42.25;;;;;;;;;;5116876;28;20216;-59
2022/12/04 06:45:05;;;;;;;83.22;40.95;;;;;;;;;;5116797;28;20193;-59
2022/12/04 06:47:32;;;;;;;86.80;40.03;;;;;;;;;;5116329;28;20261;-58
2022/12/04 06:49:59;;;;;;;93.75;41.15;;;;;;;;;;5116575;28;20275;-59
2022/12/04 06:52:26;;;;;;;86.78;41.22;;;;;;;;;;5116706;28;20277;-59
2022/12/04 06:54:53;;;;;;;87.78;38.72;;;;;;;;;;5116643;28;20626;-59
2022/12/04 06:57:21;;;;;;;86.35;39.00;;;;;;;;;;5116438;28;20192;-59
2022/12/04 06:59:48;;;;;;;86.68;40.20;;;;;;;;;;5116238;28;20188;-59
2022/12/04 07:02:15;;;;;;;87.50;40.92;;;;;;;;;;5116860;28;20623;-59
2022/12/04 07:04:42;;;;;;;89.25;41.85;;;;;;;;;;5116256;28;20348;-59
2022/12/04 07:07:10;;;;;;;81.25;39.22;;;;;;;;;;5116318;28;20196;-59
2022/12/04 07:09:37;;;;;;;86.80;40.45;;;;;;;;;;5116330;28;20275;-58
2022/12/04 07:12:04;;;;;;;92.10;41.58;;;;;;;;;;5116180;28;20196;-59
2022/12/04 07:14:32;;;;;;;87.68;41.25;;;;;;;;;;5116049;28;20716;-59
2022/12/04 07:16:59;;;;;;;83.82;40.03;;;;;;;;;;5115952;28;20374;-59
2022/12/04 07:19:26;;;;;;;84.35;41.30;;;;;;;;;;5116228;28;20283;-58
2022/12/04 07:21:53;;;;;;;89.20;39.63;;;;;;;;;;5116129;28;20220;-59
2022/12/04 07:24:20;;;;;;;84.80;39.28;;;;;;;;;;5116034;28;20284;-58
2022/12/04 07:26:47;;;;;;;91.13;40.53;;;;;;;;;;5115909;28;20189;-58
2022/12/04 07:29:14;;;;;;;85.60;39.88;;;;;;;;;;5115621;28;20220;-58
2022/12/04 07:31:43;;;;;;;82.50;40.40;;;;;;;;;;5115632;28;20185;-58
2022/12/04 07:34:10;;;;;;;89.50;38.92;;;;;;;;;;5115878;28;20191;-58
2022/12/04 07:36:39;;;;;;;76.40;37.92;;;;;;;;;;5115729;28;20238;-59
2022/12/04 07:39:06;;;;;;;95.18;39.80;;;;;;;;;;5115649;28;20184;-58
2022/12/04 07:41:34;;;;;;;76.63;38.30;;;;;;;;;;5115581;28;20264;-57
2022/12/04 07:44:01;;;;;;;82.93;40.50;;;;;;;;;;5115358;28;20215;-59
2022/12/04 07:46:28;;;;;;;96.07;43.97;;;;;;;;;;5115085;28;20754;-58
2022/12/04 07:48:57;;;;;;;93.93;40.40;;;;;;;;;;5115385;28;20644;-58
2022/12/04 07:51:25;;;;;;;87.20;41.45;;;;;;;;;;5115506;28;20218;-58
2022/12/04 07:53:52;;;;;;;81.57;39.10;;;;;;;;;;5115379;28;20276;-58
2022/12/04 07:56:19;;;;;;;86.63;40.88;;;;;;;;;;5115284;28;20234;-58
2022/12/04 07:58:49;;;;;;;82.95;40.13;;;;;;;;;;5115129;28;20239;-58
2022/12/04 08:01:16;;;;;;;84.65;38.95;;;;;;;;;;5115334;28;20224;-58
2022/12/04 08:03:44;;;;;;;91.85;39.33;;;;;;;;;;5115407;28;20315;-59
2022/12/04 08:06:13;;;;;;;79.55;37.10;;;;;;;;;;5115199;28;20192;-58
2022/12/04 08:08:40;;;;;;;82.78;37.72;;;;;;;;;;5114790;28;20212;-58
2022/12/04 08:11:08;;;;;;;88.25;41.03;;;;;;;;;;5114893;28;20193;-58
2022/12/04 08:13:35;;;;;;;86.70;38.97;;;;;;;;;;5115230;28;20199;-58
2022/12/04 08:16:02;;;;;;;96.38;41.58;;;;;;;;;;5115045;28;20231;-58
2022/12/04 08:18:29;;;;;;;75.28;37.42;;;;;;;;;;5114994;28;20195;-58
2022/12/04 08:21:02;;;;;;;88.00;39.63;;;;;;;;;;5114652;28;20768;-58
2022/12/04 08:23:30;;;;;;;86.72;39.78;;;;;;;;;;5114929;28;20188;-59
2022/12/04 08:25:59;;;;;;;96.72;42.05;;;;;;;;;;5114902;28;20284;-59
2022/12/04 08:28:26;;;;;;;90.00;40.53;;;;;;;;;;5114447;28;20223;-60
2022/12/04 08:30:53;;;;;;;97.25;39.65;;;;;;;;;;5114690;28;20201;-58
2022/12/04 08:33:20;;;;;;;87.93;40.45;;;;;;;;;;5114678;28;20184;-59
2022/12/04 08:35:47;;;;;;;89.45;39.83;;;;;;;;;;5114539;28;20276;-58
2022/12/04 08:38:14;;;;;;;85.43;40.38;;;;;;;;;;5114336;28;20194;-57
2022/12/04 08:40:42;;;;;;;85.97;39.05;;;;;;;;;;5114277;28;20560;-58
2022/12/04 08:43:09;;;;;;;91.60;41.17;;;;;;;;;;5114470;28;20309;-58
2022/12/04 08:45:36;;;;;;;85.47;41.00;;;;;;;;;;5114237;28;20275;-59
2022/12/04 08:48:02;;;;;;;85.65;39.38;;;;;;;;;;5114246;28;20279;-58
2022/12/04 08:50:29;;;;;;;84.05;36.67;;;;;;;;;;5114279;28;20276;-59
2022/12/04 08:52:56;;;;;;;90.05;41.15;;;;;;;;;;5114105;28;20284;-59
2022/12/04 08:55:23;;;;;;;91.43;42.28;;;;;;;;;;5113609;28;20188;-58
2022/12/04 08:57:52;;;;;;;83.20;38.28;;;;;;;;;;5114162;28;20195;-58
2022/12/04 09:00:19;;;;;;;91.47;40.78;;;;;;;;;;5114147;28;20280;-58
2022/12/04 09:02:49;;;;;;;81.78;39.00;;;;;;;;;;5113962;28;20276;-58
2022/12/04 09:05:16;;;;;;;83.70;39.15;;;;;;;;;;5113860;28;20189;-58
2022/12/04 09:07:42;;;;;;;83.80;38.90;;;;;;;;;;5113908;28;20610;-59
2022/12/04 09:10:10;;;;;;;78.68;36.80;;;;;;;;;;5113964;28;20249;-58
2022/12/04 09:12:37;;;;;;;87.03;40.42;;;;;;;;;;5113996;28;20272;-58
2022/12/04 09:15:06;;;;;;;80.47;38.50;;;;;;;;;;5113912;28;20284;-59
2022/12/04 09:17:34;;;;;;;86.15;39.03;;;;;;;;;;5113763;28;20275;-58
2022/12/04 09:20:01;;;;;;;75.88;37.03;;;;;;;;;;5113675;28;20284;-58
2022/12/04 09:22:28;;;;;;;78.82;36.10;;;;;;;;;;5114071;28;20189;-59
2022/12/04 09:24:55;;;;;;;75.40;35.80;;;;;;;;;;5113881;28;20184;-59
2022/12/04 09:27:22;;;;;;;86.95;39.63;;;;;;;;;;5113684;28;20283;-59
2022/12/04 09:29:49;;;;;;;84.30;38.72;;;;;;;;;;5113619;28;20320;-59
2022/12/04 09:32:17;;;;;;;77.35;35.28;;;;;;;;;;5113504;28;20382;-58
2022/12/04 09:34:44;;;;;;;79.53;38.95;;;;;;;;;;5113419;28;20191;-58
2022/12/04 09:37:11;;;;;;;84.55;36.40;;;;;;;;;;5113399;28;20189;-59
2022/12/04 09:39:38;;;;;;;85.43;39.42;;;;;;;;;;5113585;28;20228;-59
2022/12/04 09:42:17;;;;;;;78.68;36.53;;;;;;;;;;5113554;28;20362;-58
2022/12/04 09:44:45;;;;;;;81.93;38.90;;;;;;;;;;5113502;28;20194;-58
2022/12/04 09:47:15;;;;;;;78.65;36.83;;;;;;;;;;5113173;28;20670;-59
2022/12/04 09:49:46;;;;;;;85.82;38.42;;;;;;;;;;5113481;28;20224;-59
2022/12/04 09:52:21;;;;;;;80.55;37.10;;;;;;;;;;5113508;28;20291;-59
2022/12/04 09:54:49;;;;;;;86.53;37.58;;;;;;;;;;5113434;28;20292;-59
2022/12/04 09:57:17;;;;;;;77.90;36.58;;;;;;;;;;5113279;28;20275;-59
2022/12/04 09:59:45;;;;;;;79.22;37.45;;;;;;;;;;5113290;28;20189;-59
2022/12/04 10:02:19;;;;;;;77.53;38.58;;;;;;;;;;5113388;28;20215;-59
2022/12/04 10:04:47;;;;;;;71.93;34.53;;;;;;;;;;5113397;28;20552;-59
2022/12/04 10:07:17;;;;;;;77.90;35.50;;;;;;;;;;5113261;28;20279;-59
2022/12/04 10:09:49;;;;;;;73.35;35.80;;;;;;;;;;5117160;28;20217;-59
2022/12/04 10:12:22;;;;;;;66.55;35.20;;;;;;;;;;5117287;28;20279;-59
2022/12/04 10:14:52;;;;;;;83.65;37.35;;;;;;;;;;5117571;28;20276;-59
2022/12/04 10:17:28;;;;;;;73.90;37.92;;;;;;;;;;5117303;28;20195;-59
2022/12/04 10:20:01;;;;;;;75.95;37.20;;;;;;;;;;5117255;28;20183;-59
2022/12/04 10:22:30;;;;;;;71.88;37.15;;;;;;;;;;5117116;28;20288;-59
2022/12/04 10:25:00;;;;;;;73.72;36.80;;;;;;;;;;5117266;28;20276;-59
2022/12/04 10:27:29;;;;;;;68.68;36.45;;;;;;;;;;5117007;28;20662;-59
2022/12/04 10:29:57;;;;;;;80.72;37.35;;;;;;;;;;5116950;28;20311;-59
2022/12/04 10:32:27;;;;;;;74.43;35.25;;;;;;;;;;5116903;28;20279;-59
2022/12/04 10:34:56;;;;;;;73.93;36.42;;;;;;;;;;5116752;28;20292;-59
2022/12/04 10:37:24;;;;;;;67.60;32.78;;;;;;;;;;5116824;28;20645;-59
2022/12/04 10:39:55;;;;;;;72.00;34.50;;;;;;;;;;5116982;28;20326;-59
2022/12/04 10:42:26;;;;;;;65.28;32.85;;;;;;;;;;5116811;28;20284;-59
2022/12/04 10:44:53;;;;;;;64.05;32.05;;;;;;;;;;5116700;28;20184;-59
2022/12/04 10:47:22;;;;;;;62.67;32.78;;;;;;;;;;5116445;28;20307;-59
2022/12/04 10:49:50;;;;;;;67.82;34.33;;;;;;;;;;5116775;28;20300;-59
2022/12/04 10:52:17;;;;;;;61.00;34.22;;;;;;;;;;5116647;28;20279;-58
2022/12/04 10:54:47;;;;;;;64.10;32.90;;;;;;;;;;5116536;28;20189;-59
2022/12/04 10:57:14;;;;;;;70.38;32.28;;;;;;;;;;5116366;28;20648;-58
2022/12/04 10:59:48;;;;;;;65.43;33.58;;;;;;;;;;5116299;28;20618;-59
2022/12/04 11:02:17;;;;;;;69.85;32.85;;;;;;;;;;5116251;28;20193;-59
2022/12/04 11:04:51;;;;;;;56.90;33.05;;;;;;;;;;5116326;28;20276;-59
2022/12/04 11:07:21;;;;;;;59.92;33.25;;;;;;;;;;5116200;28;20193;-59
2022/12/04 11:09:56;;;;;;;52.40;30.33;;;;;;;;;;5116180;28;20217;-59
2022/12/04 11:12:23;;;;;;;56.83;31.65;;;;;;;;;;5116036;28;20662;-59
2022/12/04 11:14:59;;;;;;;63.17;32.40;;;;;;;;;;5116289;28;20195;-59
2022/12/04 11:17:26;;;;;;;58.58;31.80;;;;;;;;;;5115976;28;20200;-59
2022/12/04 11:19:59;;;;;;;58.38;31.63;;;;;;;;;;5115522;28;20668;-59
2022/12/04 11:22:26;;;;;;;65.85;33.05;;;;;;;;;;5116011;28;20277;-59
2022/12/04 11:24:55;;;;;;;61.65;32.50;;;;;;;;;;5115856;28;20185;-59
2022/12/04 11:27:26;;;;;;;54.95;32.65;;;;;;;;;;5115881;28;20200;-59
2022/12/04 11:29:53;;;;;;;59.53;33.13;;;;;;;;;;5115981;28;20227;-59
2022/12/04 11:32:22;;;;;;;57.08;31.80;;;;;;;;;;5115678;28;20652;-59
2022/12/04 11:34:50;;;;;;;55.78;32.78;;;;;;;;;;5115746;28;20547;-59
2022/12/04 11:37:20;;;;;;;58.38;30.77;;;;;;;;;;5115508;28;20188;-60
2022/12/04 11:39:47;;;;;;;53.97;31.27;;;;;;;;;;5115529;28;20276;-59
2022/12/04 11:42:18;;;;;;;61.50;30.92;;;;;;;;;;5115712;28;20196;-59
2022/12/04 11:44:52;;;;;;;59.03;33.13;;;;;;;;;;5115655;28;20560;-59
2022/12/04 11:47:20;;;;;;;56.80;30.85;;;;;;;;;;5115186;28;20227;-59
2022/12/04 11:49:59;;;;;;;70.70;35.83;;;;;;;;;;5115176;28;20307;-60
2022/12/04 11:52:29;;;;;;;62.92;33.53;;;;;;;;;;5115578;28;20193;-59
2022/12/04 11:54:59;;;;;;;59.25;31.33;;;;;;;;;;5115315;28;20656;-59
2022/12/04 11:57:30;;;;;;;62.40;33.72;;;;;;;;;;5115322;28;20224;-59
2022/12/04 12:00:09;;;;;;;55.88;31.10;;;;;;;;;;5115221;28;20744;-59
2022/12/04 12:02:44;;;;;;;58.55;31.00;;;;;;;;;;5115072;28;20735;-59
2022/12/04 12:05:30;;;;;;;59.88;32.80;;;;;;;;;;5115332;28;20300;-59
2022/12/04 12:08:00;;;;;;;63.53;32.80;;;;;;;;;;5115041;28;20287;-59
2022/12/04 12:10:30;;;;;;;62.45;32.10;;;;;;;;;;5114855;28;20223;-59
2022/12/04 12:13:02;;;;;;;60.58;32.17;;;;;;;;;;5114872;28;20231;-60
2022/12/04 12:15:36;;;;;;;58.45;31.63;;;;;;;;;;5115063;28;20198;-59
2022/12/04 12:18:15;;;;;;;60.15;31.42;;;;;;;;;;5114814;28;20195;-59
2022/12/04 12:20:44;;;;;;;69.28;33.25;;;;;;;;;;5114897;28;20288;-59
2022/12/04 12:23:23;;;;;;;61.40;32.80;;;;;;;;;;5114654;28;20192;-59
2022/12/04 12:25:54;;;;;;;61.17;30.85;;;;;;;;;;5114900;28;20200;-59
2022/12/04 12:28:27;;;;;;;59.72;30.48;;;;;;;;;;5114689;28;20287;-60
2022/12/04 12:31:02;;;;;;;63.28;32.28;;;;;;;;;;5113630;28;20212;-59
2022/12/04 12:33:31;;;;;;;64.90;31.80;;;;;;;;;;5114460;28;20345;-59
2022/12/04 12:36:01;;;;;;;67.18;33.85;;;;;;;;;;5114443;28;20713;-59
2022/12/04 12:38:30;;;;;;;75.35;33.67;;;;;;;;;;5114440;28;20189;-60
2022/12/04 12:40:59;;;;;;;67.00;32.80;;;;;;;;;;5114525;28;20283;-59
2022/12/04 12:43:29;;;;;;;63.47;30.95;;;;;;;;;;5114448;28;20196;-58
2022/12/04 12:46:01;;;;;;;66.13;33.55;;;;;;;;;;5114248;28;20221;-59
2022/12/04 12:48:35;;;;;;;73.82;33.20;;;;;;;;;;5114158;28;20247;-59
2022/12/04 12:51:04;;;;;;;61.83;32.10;;;;;;;;;;5114307;28;20312;-58
2022/12/04 12:53:35;;;;;;;72.28;34.35;;;;;;;;;;5114287;28;20280;-59
2022/12/04 12:56:04;;;;;;;70.80;32.65;;;;;;;;;;5114211;28;20280;-59
2022/12/04 12:58:34;;;;;;;76.40;33.67;;;;;;;;;;5114061;28;20284;-60
2022/12/04 13:01:04;;;;;;;65.93;33.25;;;;;;;;;;5114206;28;20224;-59
2022/12/04 13:03:38;;;;;;;74.85;34.35;;;;;;;;;;5114391;28;20283;-59
2022/12/04 13:06:07;;;;;;;71.57;34.75;;;;;;;;;;5114230;28;20284;-58
2022/12/04 13:08:35;;;;;;;79.93;36.40;;;;;;;;;;5114062;28;20271;-59
2022/12/04 13:11:05;;;;;;;65.57;33.22;;;;;;;;;;5113773;28;20303;-59
2022/12/04 13:13:34;;;;;;;81.28;36.92;;;;;;;;;;5114319;28;20263;-59
2022/12/04 13:16:05;;;;;;;77.40;35.17;;;;;;;;;;5113933;28;20285;-59
2022/12/04 13:18:34;;;;;;;79.68;39.00;;;;;;;;;;5113833;28;20289;-59
2022/12/04 13:21:05;;;;;;;85.10;37.70;;;;;;;;;;5113698;28;20281;-58
2022/12/04 13:23:46;;;;;;;81.22;34.80;;;;;;;;;;5113458;28;20189;-58
2022/12/04 13:26:18;;;;;;;73.55;34.33;;;;;;;;;;5113642;28;20595;-58
2022/12/04 13:28:51;;;;;;;89.88;36.35;;;;;;;;;;5113646;28;20199;-58
2022/12/04 13:31:24;;;;;;;73.80;36.40;;;;;;;;;;5113469;28;20243;-59
2022/12/04 13:34:07;;;;;;;76.22;38.08;;;;;;;;;;5113645;28;20222;-59
2022/12/04 13:36:53;;;;;;;83.72;36.15;;;;;;;;;;5113797;28;20697;-57
2022/12/04 13:39:28;;;;;;;94.07;38.92;;;;;;;;;;5113443;28;20731;-58
2022/12/04 13:41:59;;;;;;;79.25;36.08;;;;;;;;;;5113454;28;20200;-59
2022/12/04 13:44:26;;;;;;;82.38;36.70;;;;;;;;;;5113385;28;20249;-58
2022/12/04 13:46:56;;;;;;;82.03;35.83;;;;;;;;;;5113255;28;20575;-58
2022/12/04 13:49:25;;;;;;;101.03;38.20;;;;;;;;;;5113431;28;20603;-59
2022/12/04 13:51:54;;;;;;;101.18;38.78;;;;;;;;;;5113450;28;20193;-59
2022/12/04 13:54:26;;;;;;;90.97;37.22;;;;;;;;;;5113349;28;20284;-57
2022/12/04 13:56:55;;;;;;;96.60;38.22;;;;;;;;;;5113150;28;20277;-61
2022/12/04 13:59:24;;;;;;;105.07;40.00;;;;;;;;;;5113464;28;20193;-56
2022/12/04 14:01:52;;;;;;;97.80;40.15;;;;;;;;;;5113377;28;20283;-59
2022/12/04 14:04:26;;;;;;;95.25;40.95;;;;;;;;;;5113634;28;20186;-59
2022/12/04 14:06:55;;;;;;;95.43;39.92;;;;;;;;;;5113200;28;20258;-59
2022/12/04 14:09:25;;;;;;;99.07;40.00;;;;;;;;;;5113153;28;20529;-59
2022/12/04 14:11:54;;;;;;;98.90;40.58;;;;;;;;;;5112953;28;20203;-58
2022/12/04 14:14:24;;;;;;;106.10;42.78;;;;;;;;;;5113270;28;20192;-59
2022/12/04 14:16:51;;;;;;;93.70;38.08;;;;;;;;;;5113009;28;20189;-58
2022/12/04 14:19:27;;;;;;;103.78;40.75;;;;;;;;;;5113149;28;20196;-58
2022/12/04 14:21:55;;;;;;;102.75;40.28;;;;;;;;;;5113054;28;20191;-58
2022/12/04 14:24:29;;;;;;;101.25;40.05;;;;;;;;;;5112909;28;20196;-58
2022/12/04 14:26:56;;;;;;;98.00;41.25;;;;;;;;;;5113097;28;20190;-58
2022/12/04 14:29:30;;;;;;;118.50;45.50;;;;;;;;;;5112849;28;20193;-58
2022/12/04 14:31:59;;;;;;;106.30;40.55;;;;;;;;;;5113008;28;20292;-58
2022/12/04 14:34:28;;;;;;;105.20;39.03;;;;;;;;;;5112796;28;20196;-59
2022/12/04 14:36:57;;;;;;;103.75;40.60;;;;;;;;;;5113064;28;20292;-58